Time;durP1;ratioP1;P1;durP2;ratioP2;P2;SDS_P1;SDS_P2;PMS_P1;PMS_P2;Temp;Humidity;BMP_temperature;BMP_pressure;BME280_temperature;BME280_humidity;BME280_pressure;Samples;Min_cycle;Max_cycle;Signal;HPM_P1;HPM_P2
2020/12/27 00:02:08;;;;;;;1.88;1.38;;;21.20;32.60;;;;;;5013058;28;20796;-70
2020/12/27 00:04:34;;;;;;;2.00;1.40;;;21.20;32.60;;;;;;5013776;28;20475;-70
2020/12/27 00:07:08;;;;;;;2.60;1.35;;;21.20;32.70;;;;;;5013747;28;20916;-70
2020/12/27 00:09:38;;;;;;;1.88;1.27;;;21.20;32.50;;;;;;5013608;28;21058;-71
2020/12/27 00:12:05;;;;;;;2.10;1.40;;;21.20;32.60;;;;;;5013138;28;20443;-70
2020/12/27 00:14:30;;;;;;;1.60;1.33;;;21.20;32.50;;;;;;5013387;28;20401;-71
2020/12/27 00:17:11;;;;;;;1.80;1.40;;;21.20;32.50;;;;;;5013378;28;20388;-70
2020/12/27 00:19:37;;;;;;;2.25;1.20;;;21.20;32.40;;;;;;5012691;28;20412;-70
2020/12/27 00:22:04;;;;;;;2.55;1.40;;;21.20;32.50;;;;;;5012909;28;20388;-70
2020/12/27 00:24:30;;;;;;;1.55;1.30;;;21.20;32.40;;;;;;5013091;28;20400;-71
2020/12/27 00:26:55;;;;;;;1.80;1.30;;;21.20;32.30;;;;;;5013329;28;20393;-71
2020/12/27 00:29:21;;;;;;;1.80;1.40;;;21.20;32.40;;;;;;5012735;28;20800;-70
2020/12/27 00:31:54;;;;;;;1.50;1.20;;;21.10;32.40;;;;;;5012616;28;20393;-70
2020/12/27 00:34:20;;;;;;;1.65;1.17;;;21.10;32.30;;;;;;4995007;28;20432;-70
2020/12/27 00:36:47;;;;;;;1.83;1.30;;;21.20;32.40;;;;;;4995396;28;20396;-71
2020/12/27 00:39:13;;;;;;;1.55;1.10;;;21.10;32.50;;;;;;4995315;28;20397;-71
2020/12/27 00:41:39;;;;;;;1.80;1.33;;;21.10;32.40;;;;;;4995183;28;20429;-71
2020/12/27 00:44:06;;;;;;;1.65;1.23;;;21.10;32.50;;;;;;4994347;28;20467;-71
2020/12/27 00:46:31;;;;;;;2.00;1.13;;;21.20;32.30;;;;;;4995270;28;20952;-71
2020/12/27 00:48:57;;;;;;;1.70;1.33;;;21.10;32.20;;;;;;4994992;28;20554;-71
2020/12/27 00:51:27;;;;;;;3.03;1.40;;;21.10;32.50;;;;;;4994400;28;20413;-71
2020/12/27 00:53:53;;;;;;;3.00;1.40;;;21.10;32.70;;;;;;5012204;28;20385;-68
2020/12/27 00:56:19;;;;;;;2.35;1.50;;;21.10;32.80;;;;;;5012307;28;20436;-68
2020/12/27 00:58:45;;;;;;;2.80;1.43;;;21.10;33.30;;;;;;5013005;28;20400;-68
2020/12/27 01:01:12;;;;;;;3.80;1.33;;;21.10;33.30;;;;;;5013060;28;20479;-68
2020/12/27 01:03:39;;;;;;;2.28;1.40;;;21.10;33.20;;;;;;4995063;28;20905;-68
2020/12/27 01:06:04;;;;;;;2.20;1.50;;;21.10;33.00;;;;;;4994652;28;20432;-68
2020/12/27 01:08:30;;;;;;;2.50;1.43;;;21.10;32.80;;;;;;5012702;28;20888;-68
2020/12/27 01:10:58;;;;;;;2.80;1.40;;;21.10;32.40;;;;;;4994988;28;20496;-68
2020/12/27 01:13:24;;;;;;;2.50;1.42;;;21.10;32.30;;;;;;5012633;28;20384;-67
2020/12/27 01:15:50;;;;;;;2.75;1.48;;;21.10;32.20;;;;;;5012423;28;20395;-68
2020/12/27 01:18:15;;;;;;;2.00;1.13;;;21.10;32.10;;;;;;5011975;28;20412;-68
2020/12/27 01:20:41;;;;;;;1.92;1.30;;;21.10;32.80;;;;;;5012668;28;20796;-67
2020/12/27 01:23:06;;;;;;;1.90;1.20;;;21.10;32.10;;;;;;5012553;28;20392;-67
2020/12/27 01:25:32;;;;;;;2.15;1.35;;;21.00;32.00;;;;;;5012429;28;20397;-68
2020/12/27 01:27:58;;;;;;;2.83;1.25;;;21.00;32.10;;;;;;5011558;28;20381;-67
2020/12/27 01:30:24;;;;;;;1.90;1.20;;;21.10;32.10;;;;;;5012394;28;20422;-67
2020/12/27 01:32:50;;;;;;;2.60;1.13;;;21.00;32.10;;;;;;5012424;28;20479;-67
2020/12/27 01:35:16;;;;;;;1.80;1.17;;;21.00;32.00;;;;;;5012335;28;20404;-68
2020/12/27 01:37:41;;;;;;;1.70;1.20;;;21.10;32.10;;;;;;4994743;28;20395;-68
2020/12/27 01:40:07;;;;;;;1.67;1.10;;;21.00;31.90;;;;;;5011843;28;20484;-67
2020/12/27 01:42:33;;;;;;;2.45;1.30;;;21.00;32.00;;;;;;5012242;28;21355;-68
2020/12/27 01:44:59;;;;;;;2.07;1.30;;;21.00;31.90;;;;;;5012205;28;20483;-67
2020/12/27 01:47:27;;;;;;;1.90;1.23;;;21.00;31.80;;;;;;5012193;28;20393;-67
2020/12/27 01:49:53;;;;;;;3.03;1.40;;;21.10;31.90;;;;;;5011863;28;20421;-67
2020/12/27 01:52:19;;;;;;;1.90;1.27;;;21.10;31.80;;;;;;5011767;28;20400;-67
2020/12/27 01:54:45;;;;;;;2.28;1.40;;;21.00;31.80;;;;;;4994429;28;20455;-67
2020/12/27 01:57:13;;;;;;;2.60;1.50;;;21.00;31.70;;;;;;4994367;28;20900;-67
2020/12/27 01:59:39;;;;;;;2.38;1.42;;;21.00;31.70;;;;;;5011963;28;20393;-68
2020/12/27 02:02:07;;;;;;;2.00;1.30;;;21.00;31.70;;;;;;5011329;28;20393;-68
2020/12/27 02:04:33;;;;;;;2.42;1.40;;;21.00;31.70;;;;;;4993743;28;21080;-68
2020/12/27 02:06:59;;;;;;;1.90;1.27;;;20.90;31.60;;;;;;4993623;28;20404;-68
2020/12/27 02:09:25;;;;;;;2.45;1.42;;;20.90;31.60;;;;;;4994186;28;20412;-67
2020/12/27 02:12:05;;;;;;;2.00;1.30;;;20.90;31.50;;;;;;5011651;28;20405;-68
2020/12/27 02:14:31;;;;;;;1.75;1.20;;;20.90;31.60;;;;;;5011737;28;20398;-67
2020/12/27 02:16:57;;;;;;;2.00;1.23;;;20.90;31.60;;;;;;4993925;28;20912;-67
2020/12/27 02:19:22;;;;;;;1.87;1.20;;;20.90;31.60;;;;;;5011382;28;20446;-68
2020/12/27 02:21:48;;;;;;;2.50;1.30;;;20.90;31.60;;;;;;4994032;28;20428;-67
2020/12/27 02:24:14;;;;;;;1.83;1.17;;;20.90;31.70;;;;;;4993728;28;20389;-67
2020/12/27 02:26:51;;;;;;;2.25;1.20;;;20.90;31.60;;;;;;4993768;28;20393;-68
2020/12/27 02:29:17;;;;;;;2.17;1.20;;;20.90;31.60;;;;;;4993928;28;20425;-67
2020/12/27 02:31:43;;;;;;;2.27;1.30;;;20.90;31.60;;;;;;4994083;28;20481;-67
2020/12/27 02:34:08;;;;;;;1.90;1.15;;;20.90;31.60;;;;;;4993410;28;20397;-68
2020/12/27 02:36:34;;;;;;;1.80;1.30;;;20.80;31.60;;;;;;5011060;28;20920;-68
2020/12/27 02:38:59;;;;;;;1.55;1.05;;;20.90;31.60;;;;;;4994084;28;20388;-68
2020/12/27 02:41:25;;;;;;;1.60;1.10;;;20.80;31.50;;;;;;5015196;28;20393;-68
2020/12/27 02:43:51;;;;;;;1.80;1.20;;;20.80;31.40;;;;;;5015508;28;20404;-67
2020/12/27 02:46:26;;;;;;;2.00;1.20;;;20.80;31.40;;;;;;5014935;28;20548;-68
2020/12/27 02:48:52;;;;;;;1.83;1.27;;;20.80;31.40;;;;;;5015435;28;20430;-67
2020/12/27 02:51:19;;;;;;;1.90;1.10;;;20.80;31.40;;;;;;5015185;28;20409;-67
2020/12/27 02:53:48;;;;;;;1.75;1.10;;;20.80;31.40;;;;;;4997662;28;20482;-67
2020/12/27 02:56:14;;;;;;;1.80;1.13;;;20.80;31.40;;;;;;4997202;28;20401;-67
2020/12/27 02:58:41;;;;;;;1.30;0.90;;;20.80;31.60;;;;;;5015207;28;20388;-67
2020/12/27 03:01:06;;;;;;;1.58;1.00;;;20.70;31.40;;;;;;4997645;28;20450;-67
2020/12/27 03:03:32;;;;;;;1.70;1.00;;;20.70;31.50;;;;;;5015032;28;20507;-67
2020/12/27 03:05:58;;;;;;;1.80;1.00;;;20.70;31.50;;;;;;4997408;28;20392;-67
2020/12/27 03:08:23;;;;;;;1.40;1.00;;;20.70;31.60;;;;;;5014784;28;20891;-68
2020/12/27 03:10:49;;;;;;;1.27;0.80;;;20.70;31.50;;;;;;5014926;28;20420;-67
2020/12/27 03:13:14;;;;;;;1.50;1.10;;;20.70;31.50;;;;;;4997399;28;20403;-67
2020/12/27 03:15:40;;;;;;;1.77;1.00;;;20.70;31.40;;;;;;5014824;28;20881;-67
2020/12/27 03:18:06;;;;;;;1.60;1.05;;;20.60;31.40;;;;;;5014519;28;20385;-68
2020/12/27 03:20:31;;;;;;;1.60;1.07;;;20.60;31.40;;;;;;5014649;28;20404;-67
2020/12/27 03:22:57;;;;;;;1.33;0.90;;;20.60;31.20;;;;;;5014728;28;20388;-67
2020/12/27 03:25:23;;;;;;;1.13;0.77;;;20.60;31.30;;;;;;5014742;28;20397;-67
2020/12/27 03:27:48;;;;;;;1.63;1.00;;;20.60;31.30;;;;;;5014795;28;20886;-68
2020/12/27 03:30:14;;;;;;;1.60;1.00;;;20.60;31.20;;;;;;4996511;28;20478;-67
2020/12/27 03:32:40;;;;;;;1.67;0.88;;;20.60;31.20;;;;;;5014685;28;20455;-67
2020/12/27 03:35:06;;;;;;;1.20;0.90;;;20.60;31.20;;;;;;5014556;28;20885;-67
2020/12/27 03:37:35;;;;;;;1.30;0.90;;;20.60;31.30;;;;;;5014518;28;20443;-67
2020/12/27 03:40:05;;;;;;;1.35;0.85;;;20.50;31.30;;;;;;5014295;28;20471;-67
2020/12/27 03:42:30;;;;;;;1.42;0.85;;;20.60;31.20;;;;;;5014505;28;20847;-67
2020/12/27 03:44:56;;;;;;;1.20;0.80;;;20.50;31.10;;;;;;5014512;28;20965;-67
2020/12/27 03:47:22;;;;;;;1.70;0.95;;;20.50;31.20;;;;;;4997059;28;20405;-67
2020/12/27 03:49:48;;;;;;;1.40;0.80;;;20.50;31.20;;;;;;5014301;28;20420;-67
2020/12/27 03:52:13;;;;;;;1.02;0.70;;;20.50;31.20;;;;;;5013411;28;20385;-67
2020/12/27 03:54:39;;;;;;;1.40;0.90;;;20.50;31.20;;;;;;5014276;28;20760;-67
2020/12/27 03:57:05;;;;;;;1.47;0.87;;;20.50;31.20;;;;;;5014305;28;20396;-67
2020/12/27 03:59:30;;;;;;;1.08;0.68;;;20.50;31.20;;;;;;5013974;28;20396;-67
2020/12/27 04:01:56;;;;;;;1.20;0.90;;;20.50;31.10;;;;;;5013809;28;20397;-67
2020/12/27 04:04:21;;;;;;;1.33;0.77;;;20.50;31.70;;;;;;5013861;28;20456;-67
2020/12/27 04:06:47;;;;;;;1.10;0.70;;;20.50;31.10;;;;;;5013774;28;20397;-68
2020/12/27 04:09:13;;;;;;;1.13;0.73;;;20.50;31.00;;;;;;5014009;28;20416;-68
2020/12/27 04:11:39;;;;;;;1.23;0.80;;;20.50;31.00;;;;;;4996383;28;20404;-67
2020/12/27 04:14:05;;;;;;;1.00;0.67;;;20.50;31.70;;;;;;5013595;28;20388;-68
2020/12/27 04:16:31;;;;;;;1.10;0.70;;;20.50;31.00;;;;;;4996281;28;20405;-68
2020/12/27 04:18:56;;;;;;;1.23;0.88;;;20.50;31.00;;;;;;5013826;28;20389;-67
2020/12/27 04:21:22;;;;;;;1.03;0.67;;;20.50;31.00;;;;;;5013712;28;20400;-68
2020/12/27 04:23:48;;;;;;;1.08;0.80;;;20.50;31.00;;;;;;4995916;28;20396;-67
2020/12/27 04:26:14;;;;;;;1.30;0.80;;;20.40;31.00;;;;;;4995685;28;20749;-68
2020/12/27 04:28:40;;;;;;;1.02;0.70;;;20.50;31.10;;;;;;4996004;28;20392;-68
2020/12/27 04:31:11;;;;;;;1.20;0.70;;;20.40;31.00;;;;;;5013521;28;20447;-67
2020/12/27 04:33:37;;;;;;;1.00;0.70;;;20.50;31.10;;;;;;5013598;28;20408;-67
2020/12/27 04:36:02;;;;;;;1.20;0.70;;;20.50;31.10;;;;;;4995877;28;20769;-68
2020/12/27 04:38:28;;;;;;;1.02;0.70;;;20.40;31.00;;;;;;4995385;28;20432;-68
2020/12/27 04:40:54;;;;;;;1.13;0.80;;;20.40;31.00;;;;;;5013426;28;20442;-67
2020/12/27 04:43:21;;;;;;;1.10;0.75;;;20.40;31.00;;;;;;5013291;28;20393;-67
2020/12/27 04:45:49;;;;;;;1.00;0.77;;;20.40;31.00;;;;;;4995763;28;20527;-68
2020/12/27 04:48:17;;;;;;;1.45;0.70;;;20.40;31.00;;;;;;5012667;28;20415;-68
2020/12/27 04:50:43;;;;;;;0.93;0.70;;;20.40;31.00;;;;;;5013134;28;20443;-68
2020/12/27 04:53:11;;;;;;;1.10;0.80;;;20.40;31.00;;;;;;5013174;28;20400;-67
2020/12/27 04:55:37;;;;;;;1.10;0.70;;;20.40;30.90;;;;;;5013081;28;20414;-67
2020/12/27 04:58:04;;;;;;;1.10;0.70;;;20.40;31.00;;;;;;4995307;28;20828;-68
2020/12/27 05:00:30;;;;;;;1.23;0.70;;;20.40;31.00;;;;;;4995344;28;20773;-68
2020/12/27 05:02:56;;;;;;;1.10;0.68;;;20.40;31.00;;;;;;5012176;28;20404;-68
2020/12/27 05:05:21;;;;;;;0.90;0.70;;;20.30;30.80;;;;;;5012865;28;20411;-68
2020/12/27 05:07:47;;;;;;;1.00;0.77;;;20.30;30.90;;;;;;5012611;28;20888;-68
2020/12/27 05:10:13;;;;;;;1.20;0.60;;;20.30;30.90;;;;;;4994699;28;20431;-68
2020/12/27 05:12:39;;;;;;;1.20;0.70;;;20.30;30.90;;;;;;5012803;28;20385;-68
2020/12/27 05:15:06;;;;;;;0.90;0.60;;;20.30;30.90;;;;;;5012822;28;20980;-67
2020/12/27 05:17:34;;;;;;;1.60;0.70;;;20.30;31.40;;;;;;5012531;28;20455;-69
2020/12/27 05:20:07;;;;;;;1.05;0.73;;;20.30;31.20;;;;;;5012476;28;20402;-69
2020/12/27 05:22:35;;;;;;;1.88;0.70;;;20.30;31.90;;;;;;5012665;28;20432;-68
2020/12/27 05:25:03;;;;;;;1.67;0.70;;;20.30;32.20;;;;;;5012560;28;20877;-68
2020/12/27 05:27:31;;;;;;;1.20;0.75;;;20.20;32.40;;;;;;4994998;28;20893;-68
2020/12/27 05:30:00;;;;;;;1.10;0.80;;;20.20;32.50;;;;;;5012445;28;20483;-68
2020/12/27 05:32:29;;;;;;;1.00;0.63;;;20.20;32.60;;;;;;4994658;28;20401;-69
2020/12/27 05:34:55;;;;;;;1.10;0.70;;;20.20;32.80;;;;;;5012458;28;20389;-68
2020/12/27 05:37:22;;;;;;;1.30;0.80;;;20.20;32.80;;;;;;5012419;28;20936;-68
2020/12/27 05:39:48;;;;;;;1.50;0.60;;;20.20;32.80;;;;;;5012348;28;20864;-68
2020/12/27 05:42:13;;;;;;;1.27;0.70;;;20.10;32.80;;;;;;5011837;28;20400;-69
2020/12/27 05:44:39;;;;;;;1.02;0.70;;;20.20;33.00;;;;;;5012094;28;20476;-69
2020/12/27 05:47:05;;;;;;;1.13;0.80;;;20.10;32.90;;;;;;4994683;28;20403;-68
2020/12/27 05:49:31;;;;;;;4.20;0.90;;;20.10;32.30;;;;;;5012032;28;20483;-69
2020/12/27 05:51:59;;;;;;;9.32;1.85;;;20.10;32.00;;;;;;5012067;28;20889;-68
2020/12/27 05:54:35;;;;;;;7.15;1.30;;;20.20;34.10;;;;;;4993941;28;20922;-68
2020/12/27 05:57:03;;;;;;;5.22;1.20;;;20.20;34.20;;;;;;5011793;28;20424;-68
2020/12/27 05:59:35;;;;;;;3.92;1.00;;;20.20;34.30;;;;;;4994314;28;20393;-68
2020/12/27 06:02:02;;;;;;;2.40;0.97;;;20.20;34.00;;;;;;5011773;28;20385;-68
2020/12/27 06:05:06;;;;;;;3.00;1.00;;;20.10;33.70;;;;;;4994146;28;20436;-68
2020/12/27 06:07:40;;;;;;;2.67;0.95;;;20.10;33.70;;;;;;5008875;28;20420;-68
2020/12/27 06:10:11;;;;;;;3.88;1.08;;;20.20;33.80;;;;;;4993887;28;20933;-68
2020/12/27 06:12:55;;;;;;;3.88;1.08;;;20.20;34.00;;;;;;4994140;28;20393;-68
2020/12/27 06:15:29;;;;;;;3.03;0.90;;;20.10;34.00;;;;;;5011619;28;20522;-68
2020/12/27 06:17:55;;;;;;;4.13;1.10;;;20.10;34.00;;;;;;5011866;28;20781;-68
2020/12/27 06:20:22;;;;;;;3.05;1.10;;;20.10;33.90;;;;;;4993559;28;20417;-69
2020/12/27 06:22:50;;;;;;;1.75;0.70;;;20.10;34.00;;;;;;4994151;28;20404;-69
2020/12/27 06:25:19;;;;;;;3.25;1.00;;;20.10;34.10;;;;;;4993795;28;20397;-68
2020/12/27 06:27:45;;;;;;;2.05;0.90;;;20.10;33.90;;;;;;5011681;28;20400;-68
2020/12/27 06:30:23;;;;;;;3.22;1.10;;;20.10;34.00;;;;;;5010980;28;20416;-68
2020/12/27 06:32:57;;;;;;;2.55;0.80;;;20.10;33.90;;;;;;5011692;28;20396;-68
2020/12/27 06:35:36;;;;;;;2.38;0.80;;;20.10;33.90;;;;;;5011544;28;20381;-69
2020/12/27 06:38:19;;;;;;;2.15;0.95;;;20.20;33.90;;;;;;4993599;28;20459;-68
2020/12/27 06:40:46;;;;;;;2.38;0.90;;;20.20;34.00;;;;;;5011608;28;20397;-68
2020/12/27 06:43:23;;;;;;;3.25;1.20;;;20.20;33.90;;;;;;4993846;28;20547;-68
2020/12/27 06:45:50;;;;;;;1.73;0.77;;;20.20;33.90;;;;;;4993869;28;20388;-68
2020/12/27 06:48:34;;;;;;;1.85;0.70;;;20.20;34.00;;;;;;5011002;28;20396;-68
2020/12/27 06:50:59;;;;;;;2.00;0.80;;;20.20;34.00;;;;;;5011471;28;20416;-68
2020/12/27 06:53:44;;;;;;;1.90;0.73;;;20.30;34.10;;;;;;5011359;28;20396;-68
2020/12/27 06:56:12;;;;;;;2.40;0.85;;;20.20;34.10;;;;;;4993427;28;20447;-68
2020/12/27 06:58:39;;;;;;;1.88;0.98;;;20.20;34.10;;;;;;4993785;28;20472;-68
2020/12/27 07:01:23;;;;;;;2.20;0.90;;;20.20;34.00;;;;;;5011398;28;20393;-68
2020/12/27 07:04:08;;;;;;;1.30;0.70;;;20.20;34.00;;;;;;5011403;28;20458;-68
2020/12/27 07:06:39;;;;;;;1.42;0.88;;;20.20;33.90;;;;;;4993366;28;20408;-68
2020/12/27 07:09:05;;;;;;;2.40;0.90;;;20.20;34.00;;;;;;5011279;28;20389;-67
2020/12/27 07:11:32;;;;;;;1.77;0.80;;;20.20;34.00;;;;;;4993665;28;20412;-68
2020/12/27 07:13:59;;;;;;;2.10;1.00;;;20.20;34.00;;;;;;5011260;28;20393;-68
2020/12/27 07:16:55;;;;;;;1.90;0.90;;;20.20;34.10;;;;;;5010794;28;20411;-68
2020/12/27 07:19:25;;;;;;;1.95;0.90;;;20.20;34.10;;;;;;5006321;28;20760;-68
2020/12/27 07:21:53;;;;;;;1.98;1.10;;;20.20;34.10;;;;;;5011156;28;20488;-67
2020/12/27 07:24:25;;;;;;;1.92;1.00;;;20.10;33.70;;;;;;5010428;28;20392;-68
2020/12/27 07:26:51;;;;;;;2.90;1.30;;;20.10;33.90;;;;;;5013439;28;20399;-67
2020/12/27 07:29:23;;;;;;;2.95;1.10;;;20.10;33.40;;;;;;5014641;28;20409;-68
2020/12/27 07:31:51;;;;;;;3.70;1.40;;;20.10;33.60;;;;;;4971397;28;20406;-69
2020/12/27 07:34:22;;;;;;;2.20;1.23;;;20.20;34.00;;;;;;5013733;28;20397;-68
2020/12/27 07:36:59;;;;;;;2.10;1.40;;;20.20;33.50;;;;;;5014647;28;20884;-68
2020/12/27 07:39:50;;;;;;;3.05;1.38;;;20.20;32.70;;;;;;5014567;28;20388;-68
2020/12/27 07:42:26;;;;;;;2.95;1.38;;;20.10;31.70;;;;;;5014023;28;20421;-68
2020/12/27 07:44:52;;;;;;;2.38;1.30;;;20.00;31.50;;;;;;4996943;28;20397;-69
2020/12/27 07:47:19;;;;;;;2.33;1.42;;;19.90;31.60;;;;;;5014299;28;20519;-68
2020/12/27 07:50:08;;;;;;;2.35;1.40;;;19.90;31.50;;;;;;5014240;28;20443;-68
2020/12/27 07:52:49;;;;;;;2.53;1.40;;;19.90;31.60;;;;;;4996522;28;20385;-68
2020/12/27 07:55:22;;;;;;;2.93;1.40;;;19.90;32.00;;;;;;4996593;28;20487;-68
2020/12/27 07:57:48;;;;;;;2.67;1.40;;;19.80;31.90;;;;;;5014465;28;20872;-68
2020/12/27 08:00:14;;;;;;;1.90;1.38;;;19.80;32.50;;;;;;5013611;28;20420;-68
2020/12/27 08:02:44;;;;;;;2.28;1.52;;;19.80;31.90;;;;;;4996340;28;20917;-69
2020/12/27 08:05:11;;;;;;;2.10;1.60;;;19.80;31.90;;;;;;5014078;28;20393;-68
2020/12/27 08:07:38;;;;;;;2.15;1.40;;;19.80;31.90;;;;;;5014103;28;20404;-69
2020/12/27 08:10:33;;;;;;;2.90;1.60;;;19.80;32.00;;;;;;5013888;28;20773;-68
2020/12/27 08:13:00;;;;;;;2.10;1.50;;;19.80;31.90;;;;;;4988214;28;20450;-68
2020/12/27 08:15:31;;;;;;;1.95;1.60;;;19.80;32.00;;;;;;4995848;28;20401;-68
2020/12/27 08:18:04;;;;;;;2.10;1.40;;;19.80;32.00;;;;;;5013888;28;20388;-68
2020/12/27 08:20:32;;;;;;;2.97;1.70;;;19.80;32.80;;;;;;5013292;28;20857;-68
2020/12/27 08:23:06;;;;;;;2.08;1.58;;;19.80;32.00;;;;;;5013754;28;20395;-68
2020/12/27 08:25:34;;;;;;;2.13;1.55;;;19.80;32.00;;;;;;4995852;28;20921;-68
2020/12/27 08:28:03;;;;;;;2.35;1.55;;;19.80;31.90;;;;;;4996043;28;20389;-68
2020/12/27 08:30:28;;;;;;;3.25;1.42;;;19.80;32.20;;;;;;4995829;28;20416;-68
2020/12/27 08:33:04;;;;;;;2.63;1.40;;;19.80;31.90;;;;;;5013636;28;20480;-68
2020/12/27 08:35:30;;;;;;;3.47;1.50;;;19.80;32.30;;;;;;4995888;28;20455;-68
2020/12/27 08:38:08;;;;;;;2.28;1.60;;;19.90;32.30;;;;;;5012258;28;20796;-67
2020/12/27 08:40:38;;;;;;;1.85;1.38;;;19.90;32.20;;;;;;5013172;28;20393;-67
2020/12/27 08:43:13;;;;;;;1.80;1.23;;;20.00;32.20;;;;;;5013391;28;20480;-67
2020/12/27 08:45:43;;;;;;;2.30;1.48;;;20.00;32.20;;;;;;5013227;28;20401;-68
2020/12/27 08:48:18;;;;;;;2.00;1.45;;;20.00;32.10;;;;;;5013145;28;20407;-68
2020/12/27 08:50:47;;;;;;;2.20;1.40;;;20.10;32.20;;;;;;5013123;28;20420;-67
2020/12/27 08:53:13;;;;;;;2.00;1.30;;;20.10;32.30;;;;;;5013063;28;20900;-68
2020/12/27 08:55:40;;;;;;;1.80;1.30;;;20.10;32.30;;;;;;4995511;28;20407;-68
2020/12/27 08:58:10;;;;;;;2.70;1.13;;;20.10;31.80;;;;;;5013112;28;20385;-69
2020/12/27 09:00:36;;;;;;;2.70;1.30;;;20.20;32.10;;;;;;5012753;28;20400;-68
2020/12/27 09:03:04;;;;;;;4.22;1.55;;;20.20;31.90;;;;;;5012818;28;20417;-69
2020/12/27 09:05:31;;;;;;;2.38;1.25;;;20.30;32.20;;;;;;5012823;28;20758;-69
2020/12/27 09:07:57;;;;;;;2.45;1.20;;;20.30;32.60;;;;;;5012909;28;20411;-69
2020/12/27 09:10:25;;;;;;;2.30;1.20;;;20.40;32.60;;;;;;5012241;28;20427;-68
2020/12/27 09:13:05;;;;;;;2.10;1.00;;;20.40;32.50;;;;;;5012780;28;20385;-69
2020/12/27 09:15:32;;;;;;;2.40;1.10;;;20.40;32.80;;;;;;5012653;28;20909;-69
2020/12/27 09:18:08;;;;;;;1.75;1.10;;;20.50;32.60;;;;;;4995046;28;20411;-69
2020/12/27 09:20:35;;;;;;;2.90;1.20;;;20.50;32.70;;;;;;4994582;28;20913;-69
2020/12/27 09:23:13;;;;;;;2.60;1.15;;;20.50;32.50;;;;;;4995032;28;20412;-68
2020/12/27 09:25:39;;;;;;;4.30;1.33;;;20.50;32.40;;;;;;4994988;28;20392;-68
2020/12/27 09:28:18;;;;;;;3.30;1.10;;;20.40;33.20;;;;;;5012394;28;20881;-68
2020/12/27 09:30:59;;;;;;;3.03;1.25;;;20.50;32.70;;;;;;5012400;28;20428;-67
2020/12/27 09:33:24;;;;;;;2.85;1.10;;;20.50;32.60;;;;;;5012391;28;20483;-68
2020/12/27 09:35:57;;;;;;;2.20;1.00;;;20.60;32.50;;;;;;5012353;28;20448;-69
2020/12/27 09:38:28;;;;;;;2.08;1.00;;;20.70;32.40;;;;;;5011840;28;20412;-69
2020/12/27 09:41:15;;;;;;;3.50;1.02;;;20.70;32.40;;;;;;4994611;28;20907;-69
2020/12/27 09:44:02;;;;;;;2.78;1.13;;;20.70;32.20;;;;;;5012239;28;20786;-69
2020/12/27 09:46:52;;;;;;;3.25;1.00;;;20.80;32.40;;;;;;5007654;28;20401;-69
2020/12/27 09:49:44;;;;;;;4.60;1.10;;;20.80;32.50;;;;;;4994212;28;20399;-69
2020/12/27 09:52:12;;;;;;;3.83;1.15;;;20.80;32.40;;;;;;4991447;28;20397;-69
2020/12/27 09:54:44;;;;;;;2.90;1.20;;;20.80;32.30;;;;;;5011809;28;20475;-70
2020/12/27 09:57:16;;;;;;;2.70;1.20;;;20.90;32.20;;;;;;5012038;28;20397;-69
2020/12/27 09:59:43;;;;;;;3.60;1.33;;;20.90;31.90;;;;;;5012133;28;20400;-69
2020/12/27 10:02:09;;;;;;;2.72;1.20;;;20.90;31.80;;;;;;4994223;28;20729;-69
2020/12/27 10:04:34;;;;;;;2.70;1.20;;;20.90;31.80;;;;;;5011237;28;20404;-69
2020/12/27 10:07:00;;;;;;;1.90;1.10;;;20.90;31.60;;;;;;4994183;28;20420;-69
2020/12/27 10:09:26;;;;;;;2.88;0.90;;;21.00;31.60;;;;;;5011739;28;20888;-69
2020/12/27 10:11:52;;;;;;;2.70;1.15;;;21.00;31.60;;;;;;5011883;28;20397;-69
2020/12/27 10:14:18;;;;;;;1.67;1.00;;;21.00;31.60;;;;;;5011626;28;20388;-69
2020/12/27 10:16:44;;;;;;;1.50;0.93;;;21.00;31.50;;;;;;4994240;28;20478;-69
2020/12/27 10:19:09;;;;;;;2.60;1.10;;;21.00;31.40;;;;;;5011799;28;20428;-69
2020/12/27 10:21:35;;;;;;;2.08;0.88;;;21.00;31.40;;;;;;4994176;28;20421;-69
2020/12/27 10:24:01;;;;;;;1.40;1.00;;;21.00;31.40;;;;;;4993971;28;20388;-69
2020/12/27 10:26:26;;;;;;;1.52;1.00;;;21.00;31.60;;;;;;4993575;28;20401;-69
2020/12/27 10:28:52;;;;;;;2.40;1.10;;;21.10;31.50;;;;;;5011678;28;20393;-69
2020/12/27 10:31:18;;;;;;;1.70;1.00;;;21.10;31.40;;;;;;5011527;28;20539;-69
2020/12/27 10:33:44;;;;;;;1.87;0.80;;;21.10;31.40;;;;;;5011432;28;20393;-69
2020/12/27 10:36:09;;;;;;;1.48;0.90;;;21.10;31.30;;;;;;5011790;28;20391;-69
2020/12/27 10:38:35;;;;;;;1.30;0.88;;;21.10;31.30;;;;;;5011178;28;20392;-69
2020/12/27 10:41:01;;;;;;;2.30;1.00;;;21.10;31.30;;;;;;4993981;28;20393;-69
2020/12/27 10:43:27;;;;;;;2.00;1.00;;;21.10;31.20;;;;;;5011448;28;20389;-69
2020/12/27 10:46:03;;;;;;;2.03;1.00;;;21.10;31.30;;;;;;5011577;28;20392;-69
2020/12/27 10:48:29;;;;;;;2.05;0.98;;;21.10;31.20;;;;;;4993312;28;20749;-69
2020/12/27 10:50:55;;;;;;;1.63;1.00;;;21.20;31.20;;;;;;4993854;28;20897;-70
2020/12/27 10:53:21;;;;;;;3.20;1.23;;;21.20;31.10;;;;;;5011488;28;20388;-69
2020/12/27 10:55:47;;;;;;;2.70;1.40;;;21.20;31.10;;;;;;5011396;28;20802;-70
2020/12/27 10:58:13;;;;;;;3.22;1.52;;;21.20;31.00;;;;;;5011170;28;20447;-69
2020/12/27 11:00:39;;;;;;;3.70;1.48;;;21.30;31.10;;;;;;4994285;28;20408;-69
2020/12/27 11:03:04;;;;;;;2.80;1.50;;;21.30;31.00;;;;;;4997767;28;20409;-69
2020/12/27 11:05:30;;;;;;;3.40;1.40;;;21.30;31.00;;;;;;5015148;28;20408;-69
2020/12/27 11:07:55;;;;;;;3.13;1.50;;;21.30;31.00;;;;;;5015172;28;20407;-69
2020/12/27 11:10:21;;;;;;;3.20;1.60;;;21.30;31.00;;;;;;5014454;28;20420;-69
2020/12/27 11:12:47;;;;;;;2.80;1.37;;;21.30;31.00;;;;;;4997477;28;20904;-69
2020/12/27 11:15:14;;;;;;;2.33;1.40;;;21.40;30.90;;;;;;5015148;28;20446;-69
2020/12/27 11:17:40;;;;;;;2.78;1.50;;;21.40;30.80;;;;;;5014974;28;20722;-69
2020/12/27 11:20:05;;;;;;;3.08;1.50;;;21.40;30.80;;;;;;5014917;28;20951;-69
2020/12/27 11:22:31;;;;;;;2.80;1.60;;;21.40;30.80;;;;;;5014502;28;20472;-69
2020/12/27 11:24:56;;;;;;;3.05;1.90;;;21.40;30.70;;;;;;5014979;28;20376;-69
2020/12/27 11:27:22;;;;;;;3.20;1.80;;;21.40;30.80;;;;;;5014787;28;20479;-69
2020/12/27 11:29:48;;;;;;;2.70;1.50;;;21.40;30.70;;;;;;5014736;28;20847;-69
2020/12/27 11:32:14;;;;;;;2.87;1.67;;;21.50;30.80;;;;;;5013980;28;20404;-69
2020/12/27 11:34:39;;;;;;;2.53;1.73;;;21.50;30.70;;;;;;5014281;28;20384;-69
2020/12/27 11:37:05;;;;;;;3.70;2.10;;;21.50;30.80;;;;;;5014722;28;20499;-69
2020/12/27 11:39:30;;;;;;;3.00;1.87;;;21.50;30.90;;;;;;5014536;28;20507;-70
2020/12/27 11:41:57;;;;;;;3.28;1.80;;;21.60;31.00;;;;;;5014621;28;20420;-70
2020/12/27 11:44:24;;;;;;;3.10;1.88;;;21.60;31.00;;;;;;5013890;28;20873;-70
2020/12/27 11:46:50;;;;;;;4.30;2.40;;;21.50;31.10;;;;;;5014351;28;20484;-70
2020/12/27 11:49:16;;;;;;;4.93;2.97;;;21.60;30.90;;;;;;5014186;28;20996;-70
2020/12/27 11:51:45;;;;;;;4.97;2.97;;;21.60;30.40;;;;;;5014327;28;20404;-69
2020/12/27 11:54:10;;;;;;;5.50;2.92;;;21.60;30.50;;;;;;5014254;28;20944;-70
2020/12/27 11:56:36;;;;;;;5.27;3.30;;;21.60;30.70;;;;;;5012345;28;20539;-68
2020/12/27 11:59:02;;;;;;;6.38;3.40;;;21.60;30.80;;;;;;5012518;28;20397;-68
2020/12/27 12:01:27;;;;;;;6.63;3.50;;;21.60;31.00;;;;;;5014133;28;20866;-69
2020/12/27 12:03:54;;;;;;;5.20;3.10;;;21.60;31.70;;;;;;5013547;28;20761;-69
2020/12/27 12:06:23;;;;;;;7.55;3.90;;;21.70;31.20;;;;;;5012684;28;20408;-68
2020/12/27 12:08:49;;;;;;;7.00;3.60;;;21.70;32.00;;;;;;5013681;28;20389;-69
2020/12/27 12:11:15;;;;;;;6.50;3.45;;;21.80;32.00;;;;;;5013337;28;20944;-69
2020/12/27 12:13:41;;;;;;;5.72;3.40;;;21.90;33.10;;;;;;5013479;28;20411;-69
2020/12/27 12:16:07;;;;;;;6.40;3.30;;;22.00;33.00;;;;;;5013649;28;20393;-69
2020/12/27 12:18:32;;;;;;;6.38;3.47;;;22.00;33.90;;;;;;5013155;28;20423;-69
2020/12/27 12:20:58;;;;;;;4.57;3.00;;;22.10;33.70;;;;;;5013170;28;20393;-69
2020/12/27 12:23:24;;;;;;;4.35;2.90;;;22.10;33.40;;;;;;5013188;28;20781;-69
2020/12/27 12:25:49;;;;;;;4.50;2.83;;;22.10;33.50;;;;;;5013167;28;20393;-69
2020/12/27 12:28:15;;;;;;;4.72;2.75;;;22.10;33.10;;;;;;4995982;28;20428;-69
2020/12/27 12:30:44;;;;;;;4.43;2.70;;;22.10;33.30;;;;;;5012524;28;20733;-70
2020/12/27 12:33:10;;;;;;;4.68;2.80;;;22.20;33.40;;;;;;5013971;28;20388;-73
2020/12/27 12:35:38;;;;;;;7.13;2.90;;;22.10;33.90;;;;;;5013684;28;20389;-68
2020/12/27 12:38:04;;;;;;;4.80;2.35;;;22.10;34.20;;;;;;5014016;28;20381;-69
2020/12/27 12:40:30;;;;;;;4.45;2.75;;;22.10;33.40;;;;;;5011802;28;20393;-69
2020/12/27 12:42:56;;;;;;;5.05;2.28;;;22.20;33.60;;;;;;5013403;28;20393;-69
2020/12/27 12:45:21;;;;;;;7.20;2.60;;;22.20;33.80;;;;;;5013183;28;20793;-70
2020/12/27 12:47:47;;;;;;;4.77;2.60;;;22.20;34.50;;;;;;5013322;28;20515;-70
2020/12/27 12:50:13;;;;;;;4.80;2.70;;;22.20;34.50;;;;;;5012976;28;20432;-69
2020/12/27 12:52:39;;;;;;;4.77;2.40;;;22.10;34.10;;;;;;5012876;28;20396;-70
2020/12/27 12:55:08;;;;;;;7.22;2.45;;;22.20;33.70;;;;;;5013467;28;20387;-70